createdAt,value
2023-02-14T00:01:28.657Z,101087.52
2023-02-14T00:04:00.635Z,101083.70
2023-02-14T00:06:32.736Z,101078.98
2023-02-14T00:09:03.590Z,101084.04
2023-02-14T00:11:31.594Z,101080.57
2023-02-14T00:14:18.238Z,101081.10
2023-02-14T00:16:46.101Z,101084.96
2023-02-14T00:19:15.933Z,101087.09
2023-02-14T00:21:44.276Z,101089.36
2023-02-14T00:24:14.943Z,101097.55
2023-02-14T00:26:43.607Z,101097.73
2023-02-14T00:29:14.272Z,101095.66
2023-02-14T00:31:44.515Z,101097.41
2023-02-14T00:34:12.701Z,101102.81
2023-02-14T00:36:40.737Z,101100.02
2023-02-14T00:39:11.333Z,101106.30
2023-02-14T00:41:40.502Z,101106.14
2023-02-14T00:44:09.959Z,101105.10
2023-02-14T00:46:37.829Z,101107.35
2023-02-14T00:49:06.089Z,101107.02
2023-02-14T00:51:33.961Z,101108.58
2023-02-14T00:54:03.754Z,101105.95
2023-02-14T00:56:33.780Z,101097.92
2023-02-14T00:59:01.692Z,101094.61
2023-02-14T01:01:29.790Z,101094.78
2023-02-14T01:03:58.956Z,101088.50
2023-02-14T01:06:27.090Z,101088.15
2023-02-14T01:08:54.962Z,101086.06
2023-02-14T01:11:24.454Z,101087.12
2023-02-14T01:13:56.436Z,101084.52
2023-02-14T01:16:26.529Z,101090.09
2023-02-14T01:18:56.390Z,101086.61
2023-02-14T01:21:27.515Z,101089.21
2023-02-14T01:23:59.979Z,101085.02
2023-02-14T01:26:28.875Z,101081.02
2023-02-14T01:28:57.500Z,101079.98
2023-02-14T01:31:31.861Z,101083.13
2023-02-14T01:34:00.507Z,101084.69
2023-02-14T01:36:39.458Z,101081.02
2023-02-14T01:39:12.348Z,101078.41
2023-02-14T01:41:42.304Z,101079.46
2023-02-14T01:44:16.904Z,101080.15
2023-02-14T01:46:45.922Z,101078.77
2023-02-14T01:49:21.323Z,101072.14
2023-02-14T01:51:57.898Z,101075.27
2023-02-14T01:54:29.372Z,101076.85
2023-02-14T01:57:02.743Z,101075.45
2023-02-14T01:59:36.071Z,101074.75
2023-02-14T02:02:05.517Z,101072.66
2023-02-14T02:04:38.308Z,101075.63
2023-02-14T02:07:10.149Z,101079.11
2023-02-14T02:09:51.431Z,101073.36
2023-02-14T02:12:19.809Z,101066.02
2023-02-14T02:14:51.087Z,101066.73
2023-02-14T02:17:31.162Z,101063.41
2023-02-14T02:20:33.580Z,101060.98
2023-02-14T02:23:14.208Z,101058.88
2023-02-14T02:26:02.408Z,101053.48
2023-02-14T02:29:15.575Z,101054.00
2023-02-14T02:32:08.106Z,101055.91
2023-02-14T02:34:54.775Z,101055.74
2023-02-14T02:37:42.985Z,101051.90
2023-02-14T02:40:29.253Z,101050.88
2023-02-14T02:43:17.403Z,101050.00
2023-02-14T02:46:12.445Z,101047.88
2023-02-14T02:48:53.337Z,101049.27
2023-02-14T02:51:48.865Z,101045.10
2023-02-14T02:54:28.176Z,101047.37
2023-02-14T02:56:59.693Z,101050.33
2023-02-14T02:59:33.217Z,101047.72
2023-02-14T03:02:33.052Z,101046.67
2023-02-14T03:05:05.564Z,101040.39
2023-02-14T03:07:40.414Z,101044.41
2023-02-14T03:10:25.519Z,101043.35
2023-02-14T03:12:57.956Z,101038.65
2023-02-14T03:15:47.903Z,101040.21
2023-02-14T03:18:27.872Z,101038.64
2023-02-14T03:21:08.924Z,101040.04
2023-02-14T03:23:49.213Z,101034.64
2023-02-14T03:26:37.934Z,101034.46
2023-02-14T03:29:29.519Z,101045.78
2023-02-14T03:32:06.879Z,101048.23
2023-02-14T03:34:49.970Z,101042.48
2023-02-14T03:37:33.572Z,101039.16
2023-02-14T03:40:26.853Z,101040.20
2023-02-14T03:43:00.721Z,101038.29
2023-02-14T03:46:07.155Z,101040.73
2023-02-14T03:48:36.962Z,101039.50
2023-02-14T03:51:07.853Z,101037.06
2023-02-14T03:53:38.643Z,101040.02
2023-02-14T03:56:44.072Z,101045.63
2023-02-14T03:59:19.015Z,101049.11
2023-02-14T04:02:05.256Z,101050.32
2023-02-14T04:04:36.996Z,101048.93
2023-02-14T04:07:15.251Z,101050.84
2023-02-14T04:09:43.239Z,101044.73
2023-02-14T04:12:12.263Z,101049.10
2023-02-14T04:14:40.183Z,101050.84
2023-02-14T04:17:26.941Z,101050.84
2023-02-14T04:19:54.801Z,101052.41
2023-02-14T04:22:22.643Z,101050.48
2023-02-14T04:24:50.437Z,101052.75
2023-02-14T04:27:18.268Z,101051.02
2023-02-14T04:29:50.355Z,101057.11
2023-02-14T04:32:21.896Z,101056.59
2023-02-14T04:34:49.906Z,101056.59
2023-02-14T04:37:19.539Z,101052.40
2023-02-14T04:39:47.403Z,101052.06
2023-02-14T04:42:16.088Z,101049.79
2023-02-14T04:44:43.925Z,101049.27
2023-02-14T04:47:11.789Z,101050.30
2023-02-14T04:49:39.645Z,101048.23
2023-02-14T04:52:07.658Z,101047.69
2023-02-14T04:54:35.578Z,101047.35
2023-02-14T04:57:03.436Z,101053.10
2023-02-14T04:59:31.351Z,101059.89
2023-02-14T05:01:59.323Z,101060.08
2023-02-14T05:04:27.229Z,101061.98
2023-02-14T05:06:55.091Z,101060.05
2023-02-14T05:09:22.963Z,101064.56
2023-02-14T05:11:51.820Z,101067.01
2023-02-14T05:14:19.649Z,101069.11
2023-02-14T05:16:47.524Z,101064.73
2023-02-14T05:19:15.446Z,101066.48
2023-02-14T05:21:43.256Z,101065.80
2023-02-14T05:24:11.127Z,101059.37
2023-02-14T05:26:39.394Z,101054.13
2023-02-14T05:29:07.533Z,101058.31
2023-02-14T05:31:35.589Z,101059.52
2023-02-14T05:34:03.507Z,101065.96
2023-02-14T05:36:31.368Z,101066.31
2023-02-14T05:38:59.205Z,101068.21
2023-02-14T05:41:27.131Z,101065.61
2023-02-14T05:43:55.049Z,101059.34
2023-02-14T05:46:22.880Z,101061.09
2023-02-14T05:48:51.382Z,101064.05
2023-02-14T05:51:19.296Z,101064.91
2023-02-14T05:53:47.197Z,101070.66
2023-02-14T05:56:15.085Z,101073.98
2023-02-14T05:58:43.740Z,101073.98
2023-02-14T06:01:11.669Z,101068.39
2023-02-14T06:03:39.632Z,101064.56
2023-02-14T06:06:07.671Z,101070.67
2023-02-14T06:08:35.520Z,101070.15
2023-02-14T06:11:03.395Z,101067.54
2023-02-14T06:13:31.272Z,101073.11
2023-02-14T06:15:59.090Z,101081.12
2023-02-14T06:18:29.660Z,101085.66
2023-02-14T06:20:58.042Z,101086.70
2023-02-14T06:23:26.121Z,101082.52
2023-02-14T06:25:53.995Z,101083.04
2023-02-14T06:28:22.857Z,101091.39
2023-02-14T06:30:50.763Z,101088.42
2023-02-14T06:33:18.712Z,101090.17
2023-02-14T06:35:46.560Z,101092.27
2023-02-14T06:38:14.393Z,101098.89
2023-02-14T06:40:42.264Z,101104.46
2023-02-14T06:43:10.184Z,101103.95
2023-02-14T06:45:38.062Z,101103.07
2023-02-14T06:48:06.156Z,101095.23
2023-02-14T06:50:33.988Z,101098.54
2023-02-14T06:53:01.817Z,101103.08
2023-02-14T06:55:29.683Z,101105.52
2023-02-14T06:57:57.545Z,101108.82
2023-02-14T07:00:25.450Z,101110.22
2023-02-14T07:02:53.297Z,101114.60
2023-02-14T07:05:22.007Z,101112.35
2023-02-14T07:07:49.859Z,101113.59
2023-02-14T07:10:17.886Z,101114.46
2023-02-14T07:12:45.826Z,101109.07
2023-02-14T07:15:13.895Z,101105.77
2023-02-14T07:17:41.883Z,101110.80
2023-02-14T07:20:11.048Z,101114.48
2023-02-14T07:22:39.632Z,101117.61
2023-02-14T07:25:08.169Z,101115.69
2023-02-14T07:27:36.255Z,101119.52
2023-02-14T07:30:05.422Z,101122.48
2023-02-14T07:32:33.478Z,101123.73
2023-02-14T07:35:01.337Z,101127.73
2023-02-14T07:37:29.142Z,101126.52
2023-02-14T07:39:56.964Z,101123.02
2023-02-14T07:42:24.855Z,101120.75
2023-02-14T07:44:52.813Z,101121.45
2023-02-14T07:47:21.006Z,101129.30
2023-02-14T07:49:48.838Z,101129.46
2023-02-14T07:52:17.083Z,101130.88
2023-02-14T07:54:44.925Z,101135.05
2023-02-14T07:57:12.713Z,101139.41
2023-02-14T07:59:40.558Z,101135.75
2023-02-14T08:02:10.837Z,101132.61
2023-02-14T08:04:38.824Z,101130.89
2023-02-14T08:07:06.762Z,101133.34
2023-02-14T08:09:34.655Z,101132.83
2023-02-14T08:12:21.102Z,101134.06
2023-02-14T08:14:48.878Z,101130.57
2023-02-14T08:17:16.768Z,101122.89
2023-02-14T08:19:44.549Z,101120.80
2023-02-14T08:22:12.450Z,101126.55
2023-02-14T08:24:40.296Z,101124.81
2023-02-14T08:27:08.117Z,101121.16
2023-02-14T08:29:35.987Z,101121.48
2023-02-14T08:32:03.919Z,101123.56
2023-02-14T08:34:31.789Z,101125.83
2023-02-14T08:36:59.674Z,101129.17
2023-02-14T08:39:27.499Z,101121.84
2023-02-14T08:41:55.333Z,101120.98
2023-02-14T08:44:23.926Z,101125.34
2023-02-14T08:46:52.597Z,101130.56
2023-02-14T08:49:21.754Z,101131.45
2023-02-14T08:51:50.060Z,101128.83
2023-02-14T08:54:18.254Z,101129.01
2023-02-14T08:56:47.135Z,101135.10
2023-02-14T08:59:15.554Z,101133.02
2023-02-14T09:01:44.351Z,101127.61
2023-02-14T09:04:13.227Z,101129.88
2023-02-14T09:06:42.314Z,101132.48
2023-02-14T09:09:10.193Z,101135.11
2023-02-14T09:11:38.534Z,101139.30
2023-02-14T09:14:06.692Z,101141.38
2023-02-14T09:16:34.687Z,101142.96
2023-02-14T09:19:02.620Z,101141.22
2023-02-14T09:21:30.646Z,101143.14
2023-02-14T09:23:58.653Z,101144.89
2023-02-14T09:26:26.645Z,101151.00
2023-02-14T09:28:55.171Z,101151.52
2023-02-14T09:31:25.301Z,101152.91
2023-02-14T09:34:12.166Z,101157.61
2023-02-14T09:36:39.973Z,101154.30
2023-02-14T09:39:07.834Z,101156.40
2023-02-14T09:42:12.898Z,101153.25
2023-02-14T09:44:47.433Z,101154.65
2023-02-14T09:47:40.596Z,101159.19
2023-02-14T09:50:34.630Z,101162.67
2023-02-14T09:53:15.426Z,101164.42
2023-02-14T09:55:49.983Z,101160.61
2023-02-14T09:58:49.646Z,101161.48
2023-02-14T10:01:21.955Z,101158.69
2023-02-14T10:04:06.506Z,101156.77
2023-02-14T10:06:46.713Z,101154.85
2023-02-14T10:09:32.905Z,101155.20
2023-02-14T10:12:02.120Z,101157.80
2023-02-14T10:14:36.613Z,101156.41
2023-02-14T10:17:13.915Z,101153.08
2023-02-14T10:19:48.975Z,101154.13
2023-02-14T10:22:20.774Z,101150.64
2023-02-14T10:25:01.208Z,101147.66
2023-02-14T10:27:44.683Z,101150.80
2023-02-14T10:30:18.716Z,101152.02
2023-02-14T10:32:56.644Z,101154.98
2023-02-14T10:35:43.111Z,101149.21
2023-02-14T10:38:26.524Z,101144.34
2023-02-14T10:41:24.969Z,101143.96
2023-02-14T10:44:22.653Z,101142.36
2023-02-14T10:47:04.244Z,101142.52
2023-02-14T10:49:52.196Z,101139.34
2023-02-14T10:52:29.617Z,101136.70
2023-02-14T10:55:13.881Z,101134.73
2023-02-14T10:57:49.639Z,101133.81
2023-02-14T11:00:26.272Z,101130.64
2023-02-14T11:02:58.169Z,101123.28
2023-02-14T11:05:34.879Z,101115.39
2023-02-14T11:08:14.082Z,101113.97
2023-02-14T11:10:42.106Z,101113.91
2023-02-14T11:13:37.325Z,101105.63
2023-02-14T11:16:11.340Z,101100.21
2023-02-14T11:18:40.969Z,101104.05
2023-02-14T11:21:14.564Z,101100.40
2023-02-14T11:23:45.710Z,101091.14
2023-02-14T11:26:28.549Z,101082.55
2023-02-14T11:29:02.500Z,101087.78
2023-02-14T11:31:35.513Z,101084.48
2023-02-14T11:34:06.958Z,101077.90
2023-02-14T11:36:42.068Z,101083.73
2023-02-14T11:39:31.847Z,101086.89
2023-02-14T11:42:04.183Z,101084.80
2023-02-14T11:44:36.994Z,101075.88
2023-02-14T11:47:27.318Z,101078.17
2023-02-14T11:50:21.654Z,101079.60
2023-02-14T11:52:57.227Z,101069.33
2023-02-14T11:55:34.097Z,101068.85
2023-02-14T11:58:05.668Z,101071.14
2023-02-14T12:00:33.943Z,101064.14
2023-02-14T12:03:05.635Z,101058.90
2023-02-14T12:05:49.585Z,101060.84
2023-02-14T12:08:25.070Z,101061.56
2023-02-14T12:11:06.401Z,101056.14
2023-02-14T12:13:34.702Z,101057.72
2023-02-14T12:16:03.841Z,101053.89
2023-02-14T12:18:50.437Z,101045.33
2023-02-14T12:21:30.438Z,101046.70
2023-02-14T12:24:41.453Z,101048.63
2023-02-14T12:27:27.873Z,101046.52
2023-02-14T12:30:11.919Z,101046.02
2023-02-14T12:32:45.599Z,101049.86
2023-02-14T12:35:39.741Z,101053.39
2023-02-14T12:38:32.944Z,101044.52
2023-02-14T12:41:25.500Z,101043.62
2023-02-14T12:43:56.224Z,101047.64
2023-02-14T12:49:12.233Z,101044.35
2023-02-14T12:52:04.110Z,101044.91
2023-02-14T12:54:56.362Z,101043.35
2023-02-14T12:57:42.370Z,101038.09
2023-02-14T13:00:17.531Z,101036.14
2023-02-14T13:03:20.772Z,101029.98
2023-02-14T13:06:17.630Z,101030.76
2023-02-14T13:08:48.671Z,101025.55
2023-02-14T13:11:33.623Z,101021.61
2023-02-14T13:14:16.143Z,101021.21
2023-02-14T13:16:57.135Z,101021.00
2023-02-14T13:19:44.222Z,101019.07
2023-02-14T13:22:20.001Z,101014.77
2023-02-14T13:24:52.012Z,101010.77
2023-02-14T13:27:27.776Z,101011.95
2023-02-14T13:30:31.992Z,101013.51
2023-02-14T13:33:08.317Z,101017.09
2023-02-14T13:35:37.561Z,101018.54
2023-02-14T13:38:12.113Z,101020.80
2023-02-14T13:40:41.226Z,101021.45
2023-02-14T13:43:09.120Z,101021.20
2023-02-14T13:45:39.867Z,101019.38
2023-02-14T13:48:19.748Z,101017.41
2023-02-14T13:51:00.912Z,101013.54
2023-02-14T13:53:32.705Z,101014.08
2023-02-14T13:56:03.572Z,101018.80
2023-02-14T13:58:32.154Z,101015.89
2023-02-14T14:01:39.276Z,101010.37
2023-02-14T14:04:28.877Z,101016.17
2023-02-14T14:07:02.717Z,101010.73
2023-02-14T14:09:42.782Z,101013.02
2023-02-14T14:12:28.935Z,101008.48
2023-02-14T14:15:17.156Z,101014.42
2023-02-14T14:17:50.576Z,101018.80
2023-02-14T14:20:21.110Z,101017.23
2023-02-14T14:22:51.792Z,101013.73
2023-02-14T14:25:37.280Z,101015.27
2023-02-14T14:28:32.377Z,101015.30
2023-02-14T14:31:00.504Z,101009.79
2023-02-14T14:33:33.816Z,101012.34
2023-02-14T14:36:12.978Z,101006.42
2023-02-14T14:38:53.641Z,100996.77
2023-02-14T14:41:29.379Z,100996.73
2023-02-14T14:43:59.509Z,100995.85
2023-02-14T14:46:27.984Z,100994.77
2023-02-14T14:48:56.901Z,100993.34
2023-02-14T14:51:43.288Z,100994.39
2023-02-14T14:54:18.128Z,100996.11
2023-02-14T14:56:51.176Z,100993.98
2023-02-14T14:59:39.949Z,100989.95
2023-02-14T15:02:26.605Z,100986.09
2023-02-14T15:04:54.672Z,100988.17
2023-02-14T15:07:33.880Z,100986.77
2023-02-14T15:10:02.017Z,100986.41
2023-02-14T15:12:49.176Z,100983.27
2023-02-14T15:15:18.111Z,100982.59
2023-02-14T15:17:46.773Z,100980.50
2023-02-14T15:20:23.647Z,100973.33
2023-02-14T15:22:53.525Z,100967.23
2023-02-14T15:25:25.708Z,100966.71
2023-02-14T15:27:53.672Z,100966.55
2023-02-14T15:30:23.761Z,100963.09
2023-02-14T15:32:52.811Z,100965.21
2023-02-14T15:35:27.335Z,100961.35
2023-02-14T15:38:00.231Z,100961.90
2023-02-14T15:40:32.571Z,100959.47
2023-02-14T15:43:27.753Z,100962.83
2023-02-14T15:46:00.651Z,100960.94
2023-02-14T15:48:33.308Z,100961.65
2023-02-14T15:51:02.899Z,100960.83
2023-02-14T15:53:43.116Z,100952.34
2023-02-14T15:56:20.191Z,100951.16
2023-02-14T15:58:49.620Z,100949.63
2023-02-14T16:01:21.755Z,100946.69
2023-02-14T16:03:57.372Z,100945.84
2023-02-14T16:06:40.595Z,100941.30
2023-02-14T16:09:26.165Z,100942.52
2023-02-14T16:11:54.182Z,100944.25
2023-02-14T16:14:35.721Z,100939.17
2023-02-14T16:17:12.593Z,100935.83
2023-02-14T16:19:45.569Z,100934.09
2023-02-14T16:22:32.048Z,100936.73
2023-02-14T16:25:03.742Z,100940.21
2023-02-14T16:27:31.547Z,100937.62
2023-02-14T16:29:59.456Z,100937.48
2023-02-14T16:32:27.408Z,100944.64
2023-02-14T16:34:55.505Z,100944.98
2023-02-14T16:37:33.535Z,100944.13
2023-02-14T16:40:02.072Z,100945.55
2023-02-14T16:42:30.067Z,100947.48
2023-02-14T16:44:57.972Z,100943.46
2023-02-14T16:47:27.805Z,100938.74
2023-02-14T16:49:55.711Z,100938.39
2023-02-14T16:52:28.010Z,100944.16
2023-02-14T16:54:55.934Z,100938.39
2023-02-14T16:57:28.100Z,100934.91
2023-02-14T16:59:56.819Z,100938.73
2023-02-14T17:02:28.579Z,100943.83
2023-02-14T17:04:57.136Z,100943.50
2023-02-14T17:07:26.703Z,100941.42
2023-02-14T17:10:00.853Z,100945.79
2023-02-14T17:12:33.108Z,100948.41
2023-02-14T17:15:08.078Z,100947.04
2023-02-14T17:17:37.116Z,100946.34
2023-02-14T17:20:08.302Z,100942.17
2023-02-14T17:22:37.476Z,100943.41
2023-02-14T17:25:06.081Z,100940.63
2023-02-14T17:27:34.070Z,100941.84
2023-02-14T17:30:02.024Z,100937.48
2023-02-14T17:32:30.172Z,100935.58
2023-02-14T17:34:58.103Z,100932.79
2023-02-14T17:37:25.993Z,100938.38
2023-02-14T17:39:53.828Z,100940.10
2023-02-14T17:42:21.886Z,100940.98
2023-02-14T17:44:49.713Z,100942.06
2023-02-14T17:47:18.310Z,100939.61
2023-02-14T17:49:49.088Z,100937.70
2023-02-14T17:52:17.515Z,100941.37
2023-02-14T17:54:45.393Z,100937.52
2023-02-14T17:57:13.538Z,100943.47
2023-02-14T17:59:42.559Z,100939.46
2023-02-14T18:02:10.442Z,100938.59
2023-02-14T18:04:38.397Z,100941.23
2023-02-14T18:07:06.575Z,100935.81
2023-02-14T18:09:34.472Z,100931.63
2023-02-14T18:12:02.595Z,100929.37
2023-02-14T18:14:31.456Z,100933.22
2023-02-14T18:16:59.440Z,100933.58
2023-02-14T18:19:27.936Z,100935.69
2023-02-14T18:21:55.939Z,100933.96
2023-02-14T18:24:23.912Z,100936.94
2023-02-14T18:26:51.842Z,100936.24
2023-02-14T18:29:19.710Z,100932.41
2023-02-14T18:31:47.890Z,100929.80
2023-02-14T18:34:15.860Z,100925.80
2023-02-14T18:36:43.851Z,100928.41
2023-02-14T18:39:11.928Z,100921.10
2023-02-14T18:41:39.889Z,100920.23
2023-02-14T18:44:07.861Z,100921.46
2023-02-14T18:46:36.459Z,100922.00
2023-02-14T18:49:07.010Z,100923.77
2023-02-14T18:51:37.498Z,100927.08
2023-02-14T18:54:06.247Z,100924.30
2023-02-14T18:56:36.879Z,100920.64
2023-02-14T18:59:09.140Z,100918.90
2023-02-14T19:01:43.627Z,100916.11
2023-02-14T19:04:12.873Z,100911.23
2023-02-14T19:06:42.258Z,100904.25
2023-02-14T19:09:13.461Z,100899.73
2023-02-14T19:11:42.099Z,100897.12
2023-02-14T19:14:10.872Z,100896.08
2023-02-14T19:16:43.991Z,100899.02
2023-02-14T19:19:12.023Z,100897.48
2023-02-14T19:21:40.038Z,100889.46
2023-02-14T19:24:08.223Z,100891.37
2023-02-14T19:26:40.306Z,100894.66
2023-02-14T19:29:11.910Z,100892.05
2023-02-14T19:31:45.729Z,100896.23
2023-02-14T19:34:23.122Z,100892.75
2023-02-14T19:36:53.078Z,100889.96
2023-02-14T19:39:22.949Z,100889.61
2023-02-14T19:41:51.406Z,100890.48
2023-02-14T19:44:19.279Z,100885.60
2023-02-14T19:46:47.687Z,100888.22
2023-02-14T19:49:18.536Z,100888.73
2023-02-14T19:51:48.404Z,100888.02
2023-02-14T19:54:16.292Z,100887.15
2023-02-14T19:56:46.178Z,100885.58
2023-02-14T19:59:19.925Z,100890.27
2023-02-14T20:01:52.958Z,100894.23
2023-02-14T20:04:29.358Z,100891.08
2023-02-14T20:06:57.458Z,100893.48
2023-02-14T20:09:26.398Z,100891.71
2023-02-14T20:11:57.095Z,100884.21
2023-02-14T20:14:31.425Z,100889.05
2023-02-14T20:17:02.340Z,100884.14
2023-02-14T20:19:35.921Z,100883.06
2023-02-14T20:22:03.904Z,100880.93
2023-02-14T20:24:32.327Z,100878.62
2023-02-14T20:27:03.409Z,100871.95
2023-02-14T20:29:31.923Z,100867.06
2023-02-14T20:32:03.325Z,100869.63
2023-02-14T20:34:31.293Z,100861.77
2023-02-14T20:37:00.254Z,100857.38
2023-02-14T20:39:31.216Z,100857.17
2023-02-14T20:42:00.212Z,100857.66
2023-02-14T20:44:28.223Z,100859.15
2023-02-14T20:46:57.625Z,100857.20
2023-02-14T20:49:27.213Z,100855.94
2023-02-14T20:51:56.159Z,100861.28
2023-02-14T20:54:26.560Z,100858.83
2023-02-14T20:56:55.166Z,100857.05
2023-02-14T20:59:26.938Z,100855.23
2023-02-14T21:01:56.561Z,100857.59
2023-02-14T21:04:25.529Z,100851.10
2023-02-14T21:06:53.462Z,100850.54
2023-02-14T21:09:21.719Z,100848.59
2023-02-14T21:11:50.311Z,100850.13
2023-02-14T21:14:18.194Z,100847.13
2023-02-14T21:16:46.138Z,100845.02
2023-02-14T21:19:14.146Z,100842.02
2023-02-14T21:21:41.968Z,100842.50
2023-02-14T21:24:12.422Z,100836.90
2023-02-14T21:26:41.440Z,100835.13
2023-02-14T21:29:10.191Z,100831.45
2023-02-14T21:31:38.314Z,100831.20
2023-02-14T21:34:06.416Z,100831.33
2023-02-14T21:36:37.791Z,100830.59
2023-02-14T21:39:07.007Z,100825.18
2023-02-14T21:41:36.146Z,100821.48
2023-02-14T21:44:05.078Z,100821.42
2023-02-14T21:46:38.342Z,100819.09
2023-02-14T21:49:25.052Z,100816.48
2023-02-14T21:51:52.956Z,100818.35
2023-02-14T21:54:20.897Z,100822.98
2023-02-14T21:56:49.863Z,100819.84
2023-02-14T21:59:17.792Z,100814.60
2023-02-14T22:01:45.902Z,100811.60
2023-02-14T22:04:13.852Z,100812.27
2023-02-14T22:06:42.623Z,100809.63
2023-02-14T22:09:14.130Z,100811.33
2023-02-14T22:11:42.099Z,100807.27
2023-02-14T22:14:09.926Z,100801.70
2023-02-14T22:16:38.148Z,100800.10
2023-02-14T22:19:07.602Z,100797.78
2023-02-14T22:21:35.521Z,100796.88
2023-02-14T22:24:04.120Z,100797.52
2023-02-14T22:26:35.393Z,100798.90
2023-02-14T22:29:03.364Z,100795.75
2023-02-14T22:31:41.258Z,100792.42
2023-02-14T22:34:11.893Z,100791.34
2023-02-14T22:36:39.869Z,100788.69
2023-02-14T22:39:07.830Z,100785.05
2023-02-14T22:41:38.385Z,100782.27
2023-02-14T22:44:07.111Z,100780.16
2023-02-14T22:46:38.419Z,100777.55
2023-02-14T22:49:07.363Z,100774.72
2023-02-14T22:51:40.299Z,100770.87
2023-02-14T22:54:16.177Z,100769.13
2023-02-14T22:56:48.751Z,100768.92
2023-02-14T22:59:17.888Z,100765.23
2023-02-14T23:01:46.805Z,100763.47
2023-02-14T23:04:19.076Z,100758.42
2023-02-14T23:06:47.903Z,100762.74
2023-02-14T23:09:16.245Z,100758.20
2023-02-14T23:11:45.978Z,100752.81
2023-02-14T23:14:33.999Z,100750.20
2023-02-14T23:17:17.309Z,100745.84
2023-02-14T23:20:04.570Z,100747.53
2023-02-14T23:22:35.162Z,100743.35
2023-02-14T23:25:06.297Z,100744.38
2023-02-14T23:27:40.426Z,100739.84
2023-02-14T23:30:11.083Z,100733.39
2023-02-14T23:32:38.993Z,100728.84
2023-02-14T23:35:07.422Z,100731.06
2023-02-14T23:37:35.395Z,100732.23
2023-02-14T23:40:04.120Z,100732.02
2023-02-14T23:42:32.096Z,100731.33
2023-02-14T23:45:19.890Z,100726.81
2023-02-14T23:47:47.758Z,100729.01
2023-02-14T23:50:15.739Z,100729.50
2023-02-14T23:52:44.550Z,100728.61
2023-02-14T23:55:13.274Z,100726.31
2023-02-14T23:57:41.158Z,100724.73
